sensor_id;sensor_type;location;lat;lon;timestamp;pressure;altitude;pressure_sealevel;temperature;humidity
10852;BME280;5479;52.046;6.314;2023-08-20T00:00:01;101998.88;;;17.27;100.00
10852;BME280;5479;52.046;6.314;2023-08-20T00:02:31;102002.41;;;17.28;100.00
10852;BME280;5479;52.046;6.314;2023-08-20T00:05:01;101997.06;;;17.28;100.00
10852;BME280;5479;52.046;6.314;2023-08-20T00:07:31;101998.75;;;17.29;100.00
10852;BME280;5479;52.046;6.314;2023-08-20T00:09:59;102000.47;;;17.30;100.00
10852;BME280;5479;52.046;6.314;2023-08-20T00:12:28;102004.75;;;17.32;100.00
10852;BME280;5479;52.046;6.314;2023-08-20T00:14:57;102006.47;;;17.33;100.00
10852;BME280;5479;52.046;6.314;2023-08-20T00:17:32;102001.34;;;17.30;100.00
10852;BME280;5479;52.046;6.314;2023-08-20T00:20:01;101997.59;;;17.33;100.00
10852;BME280;5479;52.046;6.314;2023-08-20T00:22:31;101997.47;;;17.34;100.00
10852;BME280;5479;52.046;6.314;2023-08-20T00:24:59;101989.63;;;17.31;100.00
10852;BME280;5479;52.046;6.314;2023-08-20T00:27:29;101998.44;;;17.33;100.00
10852;BME280;5479;52.046;6.314;2023-08-20T00:29:57;101996.72;;;17.32;100.00
10852;BME280;5479;52.046;6.314;2023-08-20T00:32:24;102004.84;;;17.31;100.00
10852;BME280;5479;52.046;6.314;2023-08-20T00:34:52;102010.19;;;17.31;100.00
10852;BME280;5479;52.046;6.314;2023-08-20T00:37:20;102013.84;;;17.30;100.00
10852;BME280;5479;52.046;6.314;2023-08-20T00:39:48;102011.38;;;17.27;100.00
10852;BME280;5479;52.046;6.314;2023-08-20T00:42:16;102016.00;;;17.25;100.00
10852;BME280;5479;52.046;6.314;2023-08-20T00:44:46;102012.47;;;17.24;100.00
10852;BME280;5479;52.046;6.314;2023-08-20T00:47:14;102026.78;;;17.23;100.00
10852;BME280;5479;52.046;6.314;2023-08-20T00:49:42;102027.66;;;17.24;100.00
10852;BME280;5479;52.046;6.314;2023-08-20T00:52:12;102024.03;;;17.25;100.00
10852;BME280;5479;52.046;6.314;2023-08-20T00:54:41;102017.28;;;17.32;100.00
10852;BME280;5479;52.046;6.314;2023-08-20T00:57:09;102023.19;;;17.37;100.00
10852;BME280;5479;52.046;6.314;2023-08-20T00:59:37;102022.09;;;17.27;100.00
10852;BME280;5479;52.046;6.314;2023-08-20T01:02:07;102015.78;;;17.28;100.00
10852;BME280;5479;52.046;6.314;2023-08-20T01:04:35;102008.31;;;17.33;100.00
10852;BME280;5479;52.046;6.314;2023-08-20T01:07:08;101988.97;;;17.55;100.00
10852;BME280;5479;52.046;6.314;2023-08-20T01:09:50;101988.50;;;17.48;100.00
10852;BME280;5479;52.046;6.314;2023-08-20T01:12:19;101983.78;;;17.52;100.00
10852;BME280;5479;52.046;6.314;2023-08-20T01:14:47;101981.19;;;17.50;100.00
10852;BME280;5479;52.046;6.314;2023-08-20T01:17:16;101982.47;;;17.44;100.00
10852;BME280;5479;52.046;6.314;2023-08-20T01:19:46;101990.84;;;17.40;100.00
10852;BME280;5479;52.046;6.314;2023-08-20T01:22:44;101998.53;;;17.32;100.00
10852;BME280;5479;52.046;6.314;2023-08-20T01:25:24;102007.53;;;17.31;100.00
10852;BME280;5479;52.046;6.314;2023-08-20T01:28:05;102000.69;;;17.27;100.00
10852;BME280;5479;52.046;6.314;2023-08-20T01:30:37;102010.72;;;17.23;100.00
10852;BME280;5479;52.046;6.314;2023-08-20T01:33:06;102006.03;;;17.27;100.00
10852;BME280;5479;52.046;6.314;2023-08-20T01:35:34;102017.59;;;17.27;100.00
10852;BME280;5479;52.046;6.314;2023-08-20T01:38:03;102012.88;;;17.31;100.00
10852;BME280;5479;52.046;6.314;2023-08-20T01:40:31;102017.81;;;17.37;100.00
10852;BME280;5479;52.046;6.314;2023-08-20T01:42:59;102017.63;;;17.40;100.00
10852;BME280;5479;52.046;6.314;2023-08-20T01:45:27;102028.44;;;17.51;100.00
10852;BME280;5479;52.046;6.314;2023-08-20T01:47:56;102038.66;;;17.59;100.00
10852;BME280;5479;52.046;6.314;2023-08-20T01:50:24;102041.25;;;17.60;100.00
10852;BME280;5479;52.046;6.314;2023-08-20T01:52:52;102038.00;;;17.55;100.00
10852;BME280;5479;52.046;6.314;2023-08-20T01:55:20;102044.16;;;17.57;100.00
10852;BME280;5479;52.046;6.314;2023-08-20T01:57:48;102038.22;;;17.52;100.00
10852;BME280;5479;52.046;6.314;2023-08-20T02:00:16;102037.66;;;17.47;100.00
10852;BME280;5479;52.046;6.314;2023-08-20T02:02:44;102050.28;;;17.45;100.00
10852;BME280;5479;52.046;6.314;2023-08-20T02:05:13;102055.66;;;17.45;100.00
10852;BME280;5479;52.046;6.314;2023-08-20T02:07:41;102059.84;;;17.49;100.00
10852;BME280;5479;52.046;6.314;2023-08-20T02:10:09;102054.69;;;17.46;100.00
10852;BME280;5479;52.046;6.314;2023-08-20T02:12:37;102054.56;;;17.35;100.00
10852;BME280;5479;52.046;6.314;2023-08-20T02:15:06;102054.03;;;17.30;100.00
10852;BME280;5479;52.046;6.314;2023-08-20T02:17:34;102060.38;;;17.15;100.00
10852;BME280;5479;52.046;6.314;2023-08-20T02:20:04;102059.28;;;17.05;100.00
10852;BME280;5479;52.046;6.314;2023-08-20T02:22:33;102064.63;;;17.05;100.00
10852;BME280;5479;52.046;6.314;2023-08-20T02:25:01;102055.34;;;17.10;100.00
10852;BME280;5479;52.046;6.314;2023-08-20T02:27:29;102061.69;;;17.09;100.00
10852;BME280;5479;52.046;6.314;2023-08-20T02:29:57;102046.88;;;17.04;100.00
10852;BME280;5479;52.046;6.314;2023-08-20T02:32:25;102055.66;;;17.06;100.00
10852;BME280;5479;52.046;6.314;2023-08-20T02:34:53;102054.78;;;17.05;100.00
10852;BME280;5479;52.046;6.314;2023-08-20T02:37:22;102058.72;;;17.00;100.00
10852;BME280;5479;52.046;6.314;2023-08-20T02:39:51;102057.25;;;16.96;100.00
10852;BME280;5479;52.046;6.314;2023-08-20T02:42:19;102051.56;;;17.00;100.00
10852;BME280;5479;52.046;6.314;2023-08-20T02:44:47;102058.53;;;17.03;100.00
10852;BME280;5479;52.046;6.314;2023-08-20T02:47:14;102059.22;;;17.19;100.00
10852;BME280;5479;52.046;6.314;2023-08-20T02:49:42;102053.41;;;17.12;100.00
10852;BME280;5479;52.046;6.314;2023-08-20T02:52:10;102050.09;;;17.09;100.00
10852;BME280;5479;52.046;6.314;2023-08-20T02:54:39;102064.25;;;17.11;100.00
10852;BME280;5479;52.046;6.314;2023-08-20T02:57:08;102059.75;;;17.11;100.00
10852;BME280;5479;52.046;6.314;2023-08-20T02:59:36;102061.38;;;17.14;100.00
10852;BME280;5479;52.046;6.314;2023-08-20T03:02:04;102054.19;;;17.14;100.00
10852;BME280;5479;52.046;6.314;2023-08-20T03:04:32;102055.81;;;17.17;100.00
10852;BME280;5479;52.046;6.314;2023-08-20T03:07:01;102048.72;;;17.16;100.00
10852;BME280;5479;52.046;6.314;2023-08-20T03:09:29;102052.34;;;17.15;100.00
10852;BME280;5479;52.046;6.314;2023-08-20T03:11:57;102047.22;;;17.12;100.00
10852;BME280;5479;52.046;6.314;2023-08-20T03:14:26;102048.38;;;17.08;100.00
10852;BME280;5479;52.046;6.314;2023-08-20T03:16:54;102037.13;;;17.03;100.00
10852;BME280;5479;52.046;6.314;2023-08-20T03:19:22;102042.69;;;17.00;100.00
10852;BME280;5479;52.046;6.314;2023-08-20T03:21:50;102038.38;;;16.97;100.00
10852;BME280;5479;52.046;6.314;2023-08-20T03:24:18;102042.13;;;16.95;100.00
10852;BME280;5479;52.046;6.314;2023-08-20T03:26:46;102037.19;;;16.88;100.00
10852;BME280;5479;52.046;6.314;2023-08-20T03:29:14;102039.22;;;16.85;100.00
10852;BME280;5479;52.046;6.314;2023-08-20T03:31:43;102040.16;;;16.84;100.00
10852;BME280;5479;52.046;6.314;2023-08-20T03:34:11;102042.94;;;16.82;100.00
10852;BME280;5479;52.046;6.314;2023-08-20T03:36:39;102036.94;;;16.79;100.00
10852;BME280;5479;52.046;6.314;2023-08-20T03:39:07;102033.50;;;16.77;100.00
10852;BME280;5479;52.046;6.314;2023-08-20T03:41:35;102032.66;;;16.76;100.00
10852;BME280;5479;52.046;6.314;2023-08-20T03:44:03;102030.16;;;16.73;100.00
10852;BME280;5479;52.046;6.314;2023-08-20T03:46:31;102040.13;;;16.71;100.00
10852;BME280;5479;52.046;6.314;2023-08-20T03:49:01;102034.09;;;16.68;100.00
10852;BME280;5479;52.046;6.314;2023-08-20T03:51:28;102042.00;;;16.69;100.00
10852;BME280;5479;52.046;6.314;2023-08-20T03:53:56;102042.25;;;16.66;100.00
10852;BME280;5479;52.046;6.314;2023-08-20T03:56:24;102045.47;;;16.71;100.00
10852;BME280;5479;52.046;6.314;2023-08-20T03:58:52;102037.25;;;16.74;100.00
10852;BME280;5479;52.046;6.314;2023-08-20T04:01:20;102046.97;;;16.75;100.00
10852;BME280;5479;52.046;6.314;2023-08-20T04:03:48;102044.09;;;16.78;100.00
10852;BME280;5479;52.046;6.314;2023-08-20T04:06:17;102041.72;;;16.74;100.00
10852;BME280;5479;52.046;6.314;2023-08-20T04:08:45;102044.91;;;16.66;100.00
10852;BME280;5479;52.046;6.314;2023-08-20T04:11:13;102053.88;;;16.65;100.00
10852;BME280;5479;52.046;6.314;2023-08-20T04:13:41;102055.13;;;16.60;100.00
10852;BME280;5479;52.046;6.314;2023-08-20T04:16:10;102061.66;;;16.56;100.00
10852;BME280;5479;52.046;6.314;2023-08-20T04:18:38;102055.59;;;16.52;100.00
10852;BME280;5479;52.046;6.314;2023-08-20T04:21:06;102057.53;;;16.50;100.00
10852;BME280;5479;52.046;6.314;2023-08-20T04:23:36;102059.63;;;16.45;100.00
10852;BME280;5479;52.046;6.314;2023-08-20T04:26:04;102061.53;;;16.43;100.00
10852;BME280;5479;52.046;6.314;2023-08-20T04:28:32;102072.41;;;16.40;100.00
10852;BME280;5479;52.046;6.314;2023-08-20T04:30:59;102067.06;;;16.40;100.00
10852;BME280;5479;52.046;6.314;2023-08-20T04:33:27;102063.25;;;16.44;100.00
10852;BME280;5479;52.046;6.314;2023-08-20T04:35:55;102064.19;;;16.43;100.00
10852;BME280;5479;52.046;6.314;2023-08-20T04:38:23;102066.78;;;16.45;100.00
10852;BME280;5479;52.046;6.314;2023-08-20T04:40:53;102066.69;;;16.46;100.00
10852;BME280;5479;52.046;6.314;2023-08-20T04:43:20;102073.75;;;16.47;100.00
10852;BME280;5479;52.046;6.314;2023-08-20T04:45:49;102073.56;;;16.50;100.00
10852;BME280;5479;52.046;6.314;2023-08-20T04:48:17;102085.31;;;16.48;100.00
10852;BME280;5479;52.046;6.314;2023-08-20T04:50:45;102086.81;;;16.52;100.00
10852;BME280;5479;52.046;6.314;2023-08-20T04:53:13;102088.47;;;16.54;100.00
10852;BME280;5479;52.046;6.314;2023-08-20T04:55:41;102091.06;;;16.56;100.00
10852;BME280;5479;52.046;6.314;2023-08-20T04:58:10;102086.47;;;16.58;100.00
10852;BME280;5479;52.046;6.314;2023-08-20T05:00:38;102095.94;;;16.63;100.00
10852;BME280;5479;52.046;6.314;2023-08-20T05:03:06;102089.22;;;16.70;100.00
10852;BME280;5479;52.046;6.314;2023-08-20T05:05:34;102089.97;;;16.72;100.00
10852;BME280;5479;52.046;6.314;2023-08-20T05:08:02;102087.97;;;16.76;100.00
10852;BME280;5479;52.046;6.314;2023-08-20T05:10:30;102082.22;;;16.82;100.00
10852;BME280;5479;52.046;6.314;2023-08-20T05:12:58;102082.97;;;16.84;100.00
10852;BME280;5479;52.046;6.314;2023-08-20T05:15:27;102088.78;;;16.91;100.00
10852;BME280;5479;52.046;6.314;2023-08-20T05:17:55;102085.50;;;17.00;100.00
10852;BME280;5479;52.046;6.314;2023-08-20T05:20:23;102088.53;;;17.08;100.00
10852;BME280;5479;52.046;6.314;2023-08-20T05:22:51;102089.19;;;17.11;100.00
10852;BME280;5479;52.046;6.314;2023-08-20T05:25:19;102091.47;;;17.17;100.00
10852;BME280;5479;52.046;6.314;2023-08-20T05:27:47;102089.34;;;17.22;100.00
10852;BME280;5479;52.046;6.314;2023-08-20T05:30:15;102098.78;;;17.28;100.00
10852;BME280;5479;52.046;6.314;2023-08-20T05:32:44;102104.50;;;17.36;100.00
10852;BME280;5479;52.046;6.314;2023-08-20T05:35:12;102105.97;;;17.40;100.00
10852;BME280;5479;52.046;6.314;2023-08-20T05:37:40;102100.09;;;17.35;100.00
10852;BME280;5479;52.046;6.314;2023-08-20T05:40:09;102099.72;;;17.27;100.00
10852;BME280;5479;52.046;6.314;2023-08-20T05:42:37;102099.19;;;17.22;100.00
10852;BME280;5479;52.046;6.314;2023-08-20T05:45:06;102106.94;;;17.39;100.00
10852;BME280;5479;52.046;6.314;2023-08-20T05:47:34;102115.09;;;17.50;100.00
10852;BME280;5479;52.046;6.314;2023-08-20T05:50:05;102108.97;;;17.62;100.00
10852;BME280;5479;52.046;6.314;2023-08-20T05:52:33;102112.72;;;17.72;100.00
10852;BME280;5479;52.046;6.314;2023-08-20T05:55:01;102112.84;;;17.83;100.00
10852;BME280;5479;52.046;6.314;2023-08-20T05:57:30;102108.38;;;17.96;100.00
10852;BME280;5479;52.046;6.314;2023-08-20T05:59:58;102100.22;;;18.11;100.00
10852;BME280;5479;52.046;6.314;2023-08-20T06:02:26;102107.50;;;18.21;100.00
10852;BME280;5479;52.046;6.314;2023-08-20T06:04:54;102106.41;;;18.36;100.00
10852;BME280;5479;52.046;6.314;2023-08-20T06:07:23;102105.88;;;18.44;100.00
10852;BME280;5479;52.046;6.314;2023-08-20T06:09:51;102103.09;;;18.58;100.00
10852;BME280;5479;52.046;6.314;2023-08-20T06:12:19;102105.34;;;18.64;100.00
10852;BME280;5479;52.046;6.314;2023-08-20T06:14:47;102117.09;;;18.74;100.00
10852;BME280;5479;52.046;6.314;2023-08-20T06:17:15;102122.47;;;18.74;100.00
10852;BME280;5479;52.046;6.314;2023-08-20T06:19:44;102116.19;;;18.86;100.00
10852;BME280;5479;52.046;6.314;2023-08-20T06:22:12;102119.72;;;18.99;100.00
10852;BME280;5479;52.046;6.314;2023-08-20T06:24:41;102111.84;;;19.09;100.00
10852;BME280;5479;52.046;6.314;2023-08-20T06:27:09;102122.13;;;19.15;100.00
10852;BME280;5479;52.046;6.314;2023-08-20T06:29:37;102113.50;;;19.22;100.00
10852;BME280;5479;52.046;6.314;2023-08-20T06:32:05;102110.88;;;19.34;100.00
10852;BME280;5479;52.046;6.314;2023-08-20T06:34:33;102113.22;;;19.38;100.00
10852;BME280;5479;52.046;6.314;2023-08-20T06:37:02;102114.75;;;19.29;100.00
10852;BME280;5479;52.046;6.314;2023-08-20T06:39:30;102112.28;;;19.50;100.00
10852;BME280;5479;52.046;6.314;2023-08-20T06:42:00;102117.38;;;19.66;100.00
10852;BME280;5479;52.046;6.314;2023-08-20T06:44:28;102110.81;;;19.81;100.00
10852;BME280;5479;52.046;6.314;2023-08-20T06:46:56;102116.97;;;20.05;100.00
10852;BME280;5479;52.046;6.314;2023-08-20T06:49:24;102107.72;;;20.42;100.00
10852;BME280;5479;52.046;6.314;2023-08-20T06:51:52;102116.81;;;21.18;100.00
10852;BME280;5479;52.046;6.314;2023-08-20T06:54:20;102110.38;;;22.84;100.00
10852;BME280;5479;52.046;6.314;2023-08-20T06:56:48;102106.34;;;24.59;100.00
10852;BME280;5479;52.046;6.314;2023-08-20T06:59:17;102110.06;;;25.83;100.00
10852;BME280;5479;52.046;6.314;2023-08-20T07:01:45;102100.72;;;26.71;100.00
10852;BME280;5479;52.046;6.314;2023-08-20T07:04:13;102101.81;;;27.68;100.00
10852;BME280;5479;52.046;6.314;2023-08-20T07:06:41;102109.94;;;28.08;90.96
10852;BME280;5479;52.046;6.314;2023-08-20T07:09:09;102108.16;;;28.40;90.76
10852;BME280;5479;52.046;6.314;2023-08-20T07:11:37;102109.50;;;29.21;79.00
10852;BME280;5479;52.046;6.314;2023-08-20T07:14:05;102112.97;;;29.98;74.11
10852;BME280;5479;52.046;6.314;2023-08-20T07:16:34;102114.66;;;29.99;69.05
10852;BME280;5479;52.046;6.314;2023-08-20T07:19:02;102119.47;;;28.76;74.42
10852;BME280;5479;52.046;6.314;2023-08-20T07:21:30;102116.03;;;29.80;69.61
10852;BME280;5479;52.046;6.314;2023-08-20T07:23:58;102118.16;;;30.08;61.72
10852;BME280;5479;52.046;6.314;2023-08-20T07:26:26;102112.53;;;30.24;62.56
10852;BME280;5479;52.046;6.314;2023-08-20T07:28:54;102116.91;;;29.58;63.61
10852;BME280;5479;52.046;6.314;2023-08-20T07:31:27;102104.94;;;30.48;61.73
10852;BME280;5479;52.046;6.314;2023-08-20T07:33:57;102103.69;;;31.16;56.88
10852;BME280;5479;52.046;6.314;2023-08-20T07:36:26;102103.72;;;32.07;54.26
10852;BME280;5479;52.046;6.314;2023-08-20T07:38:54;102101.63;;;32.09;52.58
10852;BME280;5479;52.046;6.314;2023-08-20T07:41:22;102106.47;;;31.86;52.31
10852;BME280;5479;52.046;6.314;2023-08-20T07:43:50;102111.09;;;32.41;50.46
10852;BME280;5479;52.046;6.314;2023-08-20T07:46:19;102110.25;;;32.06;51.04
10852;BME280;5479;52.046;6.314;2023-08-20T07:48:47;102117.41;;;32.42;50.15
10852;BME280;5479;52.046;6.314;2023-08-20T07:51:16;102112.75;;;31.38;52.13
10852;BME280;5479;52.046;6.314;2023-08-20T07:53:44;102100.38;;;32.12;50.68
10852;BME280;5479;52.046;6.314;2023-08-20T07:56:12;102099.13;;;33.03;48.63
10852;BME280;5479;52.046;6.314;2023-08-20T07:58:40;102102.69;;;33.57;46.88
10852;BME280;5479;52.046;6.314;2023-08-20T08:01:08;102104.75;;;34.01;45.39
10852;BME280;5479;52.046;6.314;2023-08-20T08:03:36;102101.97;;;34.27;44.34
10852;BME280;5479;52.046;6.314;2023-08-20T08:06:04;102098.44;;;34.07;44.52
10852;BME280;5479;52.046;6.314;2023-08-20T08:08:33;102106.00;;;34.31;43.84
10852;BME280;5479;52.046;6.314;2023-08-20T08:11:01;102111.06;;;34.34;41.89
10852;BME280;5479;52.046;6.314;2023-08-20T08:13:29;102110.44;;;34.26;41.98
10852;BME280;5479;52.046;6.314;2023-08-20T08:15:57;102110.88;;;34.03;42.23
10852;BME280;5479;52.046;6.314;2023-08-20T08:18:25;102115.56;;;33.70;42.20
10852;BME280;5479;52.046;6.314;2023-08-20T08:20:53;102114.44;;;33.45;43.11
10852;BME280;5479;52.046;6.314;2023-08-20T08:23:21;102123.75;;;33.30;43.08
10852;BME280;5479;52.046;6.314;2023-08-20T08:25:51;102119.31;;;33.42;43.00
10852;BME280;5479;52.046;6.314;2023-08-20T08:28:18;102123.16;;;33.68;42.04
10852;BME280;5479;52.046;6.314;2023-08-20T08:30:46;102119.50;;;33.48;42.42
10852;BME280;5479;52.046;6.314;2023-08-20T08:33:14;102125.53;;;33.04;40.72
10852;BME280;5479;52.046;6.314;2023-08-20T08:35:43;102118.44;;;32.68;41.74
10852;BME280;5479;52.046;6.314;2023-08-20T08:38:10;102131.28;;;33.15;40.23
10852;BME280;5479;52.046;6.314;2023-08-20T08:40:40;102132.28;;;33.01;40.39
10852;BME280;5479;52.046;6.314;2023-08-20T08:43:13;102126.66;;;33.16;41.65
10852;BME280;5479;52.046;6.314;2023-08-20T08:45:46;102135.97;;;33.28;41.75
10852;BME280;5479;52.046;6.314;2023-08-20T08:48:15;102132.25;;;33.75;40.72
10852;BME280;5479;52.046;6.314;2023-08-20T08:50:43;102142.41;;;33.94;39.76
10852;BME280;5479;52.046;6.314;2023-08-20T08:53:12;102139.97;;;33.19;40.38
10852;BME280;5479;52.046;6.314;2023-08-20T08:55:40;102145.94;;;32.88;41.41
10852;BME280;5479;52.046;6.314;2023-08-20T08:58:08;102145.72;;;33.44;40.96
10852;BME280;5479;52.046;6.314;2023-08-20T09:00:38;102150.66;;;34.07;40.38
10852;BME280;5479;52.046;6.314;2023-08-20T09:03:06;102145.50;;;34.43;39.79
10852;BME280;5479;52.046;6.314;2023-08-20T09:05:45;102141.50;;;34.39;40.39
10852;BME280;5479;52.046;6.314;2023-08-20T09:08:19;102140.03;;;34.37;40.83
10852;BME280;5479;52.046;6.314;2023-08-20T09:10:50;102143.66;;;34.37;40.30
10852;BME280;5479;52.046;6.314;2023-08-20T09:13:19;102137.31;;;34.17;40.83
10852;BME280;5479;52.046;6.314;2023-08-20T09:15:52;102139.81;;;34.58;40.07
10852;BME280;5479;52.046;6.314;2023-08-20T09:18:20;102139.25;;;34.94;39.58
10852;BME280;5479;52.046;6.314;2023-08-20T09:20:48;102140.03;;;35.01;39.77
10852;BME280;5479;52.046;6.314;2023-08-20T09:23:17;102137.47;;;35.75;38.62
10852;BME280;5479;52.046;6.314;2023-08-20T09:25:44;102143.03;;;33.96;41.01
10852;BME280;5479;52.046;6.314;2023-08-20T09:28:14;102140.66;;;34.45;41.35
10852;BME280;5479;52.046;6.314;2023-08-20T09:30:56;102129.41;;;35.18;39.58
10852;BME280;5479;52.046;6.314;2023-08-20T09:33:24;102139.41;;;35.05;39.69
10852;BME280;5479;52.046;6.314;2023-08-20T09:35:54;102127.56;;;34.92;40.37
10852;BME280;5479;52.046;6.314;2023-08-20T09:38:23;102129.44;;;35.04;39.01
10852;BME280;5479;52.046;6.314;2023-08-20T09:40:52;102121.72;;;34.82;39.91
10852;BME280;5479;52.046;6.314;2023-08-20T09:43:24;102125.69;;;34.15;41.59
10852;BME280;5479;52.046;6.314;2023-08-20T09:45:58;102133.78;;;34.81;39.76
10852;BME280;5479;52.046;6.314;2023-08-20T09:48:33;102127.03;;;35.52;38.57
10852;BME280;5479;52.046;6.314;2023-08-20T09:51:04;102133.09;;;35.92;38.06
10852;BME280;5479;52.046;6.314;2023-08-20T09:53:38;102139.44;;;34.02;40.67
10852;BME280;5479;52.046;6.314;2023-08-20T09:56:12;102134.31;;;33.47;41.53
10852;BME280;5479;52.046;6.314;2023-08-20T09:58:43;102139.22;;;31.73;44.04
10852;BME280;5479;52.046;6.314;2023-08-20T10:01:13;102144.16;;;31.42;46.52
10852;BME280;5479;52.046;6.314;2023-08-20T10:03:43;102142.00;;;31.16;44.86
10852;BME280;5479;52.046;6.314;2023-08-20T10:06:11;102125.97;;;32.60;43.03
10852;BME280;5479;52.046;6.314;2023-08-20T10:08:39;102143.13;;;32.41;43.57
10852;BME280;5479;52.046;6.314;2023-08-20T10:11:07;102130.72;;;32.86;41.79
10852;BME280;5479;52.046;6.314;2023-08-20T10:13:35;102143.66;;;33.98;39.84
10852;BME280;5479;52.046;6.314;2023-08-20T10:16:04;102141.34;;;34.92;37.57
10852;BME280;5479;52.046;6.314;2023-08-20T10:18:37;102138.69;;;35.23;36.79
10852;BME280;5479;52.046;6.314;2023-08-20T10:21:05;102142.41;;;35.35;35.89
10852;BME280;5479;52.046;6.314;2023-08-20T10:23:34;102148.09;;;35.40;35.77
10852;BME280;5479;52.046;6.314;2023-08-20T10:26:09;102148.69;;;35.18;36.19
10852;BME280;5479;52.046;6.314;2023-08-20T10:28:37;102133.09;;;35.36;36.16
10852;BME280;5479;52.046;6.314;2023-08-20T10:31:07;102138.50;;;35.49;36.93
10852;BME280;5479;52.046;6.314;2023-08-20T10:33:38;102128.19;;;35.69;36.74
10852;BME280;5479;52.046;6.314;2023-08-20T10:36:08;102138.13;;;36.02;35.99
10852;BME280;5479;52.046;6.314;2023-08-20T10:38:36;102135.13;;;36.46;34.61
10852;BME280;5479;52.046;6.314;2023-08-20T10:41:06;102141.44;;;36.10;33.91
10852;BME280;5479;52.046;6.314;2023-08-20T10:43:37;102135.88;;;36.17;33.66
10852;BME280;5479;52.046;6.314;2023-08-20T10:46:14;102133.72;;;36.73;34.24
10852;BME280;5479;52.046;6.314;2023-08-20T10:48:47;102127.59;;;36.35;32.73
10852;BME280;5479;52.046;6.314;2023-08-20T10:51:17;102126.41;;;35.82;32.55
10852;BME280;5479;52.046;6.314;2023-08-20T10:54:04;102127.97;;;35.40;33.27
10852;BME280;5479;52.046;6.314;2023-08-20T10:56:40;102137.09;;;34.96;33.05
10852;BME280;5479;52.046;6.314;2023-08-20T10:59:09;102141.06;;;34.49;33.51
10852;BME280;5479;52.046;6.314;2023-08-20T11:01:43;102125.38;;;36.01;31.28
10852;BME280;5479;52.046;6.314;2023-08-20T11:04:12;102125.75;;;37.02;29.90
10852;BME280;5479;52.046;6.314;2023-08-20T11:06:42;102128.22;;;36.55;29.60
10852;BME280;5479;52.046;6.314;2023-08-20T11:09:10;102124.00;;;37.48;29.04
10852;BME280;5479;52.046;6.314;2023-08-20T11:11:38;102131.66;;;37.05;28.46
10852;BME280;5479;52.046;6.314;2023-08-20T11:14:08;102126.63;;;35.55;30.87
10852;BME280;5479;52.046;6.314;2023-08-20T11:16:41;102132.94;;;35.87;30.61
10852;BME280;5479;52.046;6.314;2023-08-20T11:19:09;102122.69;;;36.19;30.08
10852;BME280;5479;52.046;6.314;2023-08-20T11:21:39;102123.44;;;36.26;30.00
10852;BME280;5479;52.046;6.314;2023-08-20T11:24:08;102127.75;;;35.97;30.37
10852;BME280;5479;52.046;6.314;2023-08-20T11:26:39;102118.88;;;35.70;31.31
10852;BME280;5479;52.046;6.314;2023-08-20T11:29:07;102127.66;;;35.23;31.60
10852;BME280;5479;52.046;6.314;2023-08-20T11:31:36;102125.06;;;34.13;32.61
10852;BME280;5479;52.046;6.314;2023-08-20T11:34:05;102122.72;;;34.23;33.12
10852;BME280;5479;52.046;6.314;2023-08-20T11:36:34;102113.94;;;34.66;32.28
10852;BME280;5479;52.046;6.314;2023-08-20T11:39:04;102118.91;;;34.31;32.76
10852;BME280;5479;52.046;6.314;2023-08-20T11:41:35;102123.78;;;33.96;34.87
10852;BME280;5479;52.046;6.314;2023-08-20T11:44:04;102114.41;;;33.18;34.62
10852;BME280;5479;52.046;6.314;2023-08-20T11:46:32;102113.63;;;31.59;37.08
10852;BME280;5479;52.046;6.314;2023-08-20T11:49:01;102112.25;;;32.26;37.10
10852;BME280;5479;52.046;6.314;2023-08-20T11:51:35;102108.78;;;32.45;36.41
10852;BME280;5479;52.046;6.314;2023-08-20T11:54:08;102116.00;;;32.93;36.49
10852;BME280;5479;52.046;6.314;2023-08-20T11:56:43;102114.88;;;33.35;35.75
10852;BME280;5479;52.046;6.314;2023-08-20T11:59:11;102113.91;;;33.02;36.45
10852;BME280;5479;52.046;6.314;2023-08-20T12:01:39;102111.88;;;32.29;36.65
10852;BME280;5479;52.046;6.314;2023-08-20T12:04:08;102100.16;;;32.48;35.52
10852;BME280;5479;52.046;6.314;2023-08-20T12:06:38;102102.53;;;33.05;34.60
10852;BME280;5479;52.046;6.314;2023-08-20T12:09:20;102103.44;;;33.31;34.36
10852;BME280;5479;52.046;6.314;2023-08-20T12:11:49;102096.44;;;33.09;35.70
10852;BME280;5479;52.046;6.314;2023-08-20T12:14:17;102099.19;;;32.55;36.08
10852;BME280;5479;52.046;6.314;2023-08-20T12:16:46;102098.69;;;32.99;36.31
10852;BME280;5479;52.046;6.314;2023-08-20T12:19:14;102098.03;;;32.84;36.59
10852;BME280;5479;52.046;6.314;2023-08-20T12:21:42;102093.56;;;32.83;35.62
10852;BME280;5479;52.046;6.314;2023-08-20T12:24:10;102094.56;;;33.16;34.54
10852;BME280;5479;52.046;6.314;2023-08-20T12:26:40;102092.88;;;33.22;34.89
10852;BME280;5479;52.046;6.314;2023-08-20T12:29:08;102083.59;;;33.29;35.36
10852;BME280;5479;52.046;6.314;2023-08-20T12:31:36;102087.38;;;33.15;35.50
10852;BME280;5479;52.046;6.314;2023-08-20T12:34:04;102085.16;;;32.91;35.08
10852;BME280;5479;52.046;6.314;2023-08-20T12:36:31;102084.03;;;32.66;34.75
10852;BME280;5479;52.046;6.314;2023-08-20T12:38:59;102080.97;;;32.13;35.58
10852;BME280;5479;52.046;6.314;2023-08-20T12:41:27;102076.50;;;31.78;36.44
10852;BME280;5479;52.046;6.314;2023-08-20T12:43:57;102075.69;;;31.56;36.46
10852;BME280;5479;52.046;6.314;2023-08-20T12:46:25;102068.63;;;31.05;37.38
10852;BME280;5479;52.046;6.314;2023-08-20T12:48:53;102082.13;;;31.49;37.20
10852;BME280;5479;52.046;6.314;2023-08-20T12:51:21;102071.69;;;31.38;36.12
10852;BME280;5479;52.046;6.314;2023-08-20T12:53:48;102065.69;;;31.49;36.36
10852;BME280;5479;52.046;6.314;2023-08-20T12:56:16;102058.88;;;31.59;36.59
10852;BME280;5479;52.046;6.314;2023-08-20T12:58:44;102070.91;;;31.23;37.08
10852;BME280;5479;52.046;6.314;2023-08-20T13:01:13;102063.22;;;31.12;37.53
10852;BME280;5479;52.046;6.314;2023-08-20T13:03:42;102067.34;;;30.86;39.14